createdAt,value
2022-09-20T00:01:42.936Z,91.38
2022-09-20T00:04:11.450Z,91.45
2022-09-20T00:06:39.855Z,90.22
2022-09-20T00:09:08.340Z,90.62
2022-09-20T00:11:37.316Z,91.79
2022-09-20T00:14:08.983Z,92.47
2022-09-20T00:16:41.100Z,91.52
2022-09-20T00:19:18.973Z,91.31
2022-09-20T00:21:47.640Z,92.26
2022-09-20T00:24:16.306Z,92.38
2022-09-20T00:26:44.645Z,91.99
2022-09-20T00:29:13.479Z,91.95
2022-09-20T00:31:43.217Z,91.28
2022-09-20T00:34:31.772Z,90.24
2022-09-20T00:37:00.131Z,89.93
2022-09-20T00:39:28.477Z,90.15
2022-09-20T00:41:56.851Z,90.79
2022-09-20T00:44:45.506Z,91.03
2022-09-20T00:47:37.006Z,90.11
2022-09-20T00:50:23.802Z,89.81
2022-09-20T00:53:00.147Z,89.38
2022-09-20T00:55:29.170Z,88.95
2022-09-20T00:57:58.955Z,89.07
2022-09-20T01:00:27.867Z,89.26
2022-09-20T01:03:06.282Z,89.25
2022-09-20T01:05:35.657Z,89.23
2022-09-20T01:08:04.678Z,90.06
2022-09-20T01:10:33.667Z,89.85
2022-09-20T01:13:02.073Z,89.83
2022-09-20T01:15:32.658Z,89.37
2022-09-20T01:18:03.194Z,89.48
2022-09-20T01:20:37.077Z,88.89
2022-09-20T01:23:45.764Z,89.32
2022-09-20T01:26:29.347Z,87.98
2022-09-20T01:29:16.690Z,89.12
2022-09-20T01:31:53.575Z,88.33
2022-09-20T01:34:38.132Z,89.58
2022-09-20T01:37:11.933Z,89.22
2022-09-20T01:39:47.976Z,88.73
2022-09-20T01:42:16.915Z,89.91
2022-09-20T01:45:19.167Z,89.71
2022-09-20T01:48:14.801Z,90.35
2022-09-20T01:51:40.846Z,89.62
2022-09-20T01:54:21.014Z,90.29
2022-09-20T01:56:54.231Z,91.66
2022-09-20T01:59:44.966Z,89.99
2022-09-20T02:03:00.839Z,90.83
2022-09-20T02:05:56.784Z,91.34
2022-09-20T02:08:44.282Z,90.96
2022-09-20T02:11:19.560Z,90.07
2022-09-20T02:13:57.001Z,90.39
2022-09-20T02:16:53.007Z,92.36
2022-09-20T02:19:51.096Z,91.37
2022-09-20T02:22:56.764Z,92.63
2022-09-20T02:26:11.158Z,90.96
2022-09-20T02:29:01.324Z,91.64
2022-09-20T02:31:41.899Z,90.69
2022-09-20T02:35:06.985Z,90.90
2022-09-20T02:37:55.652Z,90.45
2022-09-20T02:40:32.912Z,91.63
2022-09-20T02:43:04.242Z,90.73
2022-09-20T02:45:51.330Z,91.87
2022-09-20T02:48:27.901Z,91.25
2022-09-20T02:51:24.787Z,91.03
2022-09-20T02:54:21.705Z,90.71
2022-09-20T02:57:15.937Z,91.30
2022-09-20T02:59:56.209Z,91.29
2022-09-20T03:02:36.549Z,92.03
2022-09-20T03:05:24.293Z,92.50
2022-09-20T03:08:07.672Z,92.85
2022-09-20T03:10:43.883Z,92.22
2022-09-20T03:13:36.543Z,91.69
2022-09-20T03:16:07.803Z,92.02
2022-09-20T03:18:59.521Z,92.33
2022-09-20T03:21:58.054Z,93.10
2022-09-20T03:25:21.631Z,91.41
2022-09-20T03:28:24.712Z,91.13
2022-09-20T03:31:39.412Z,91.49
2022-09-20T03:34:48.242Z,91.19
2022-09-20T03:37:31.350Z,91.56
2022-09-20T03:40:20.827Z,90.66
2022-09-20T03:42:52.960Z,91.68
2022-09-20T03:45:55.393Z,90.71
2022-09-20T03:48:51.518Z,90.81
2022-09-20T03:51:33.857Z,90.98
2022-09-20T03:54:54.614Z,90.70
2022-09-20T03:58:06.806Z,90.03
2022-09-20T04:01:10.048Z,89.68
2022-09-20T04:03:54.135Z,89.62
2022-09-20T04:07:13.139Z,88.81
2022-09-20T04:10:19.406Z,89.10
2022-09-20T04:12:59.687Z,88.76
2022-09-20T04:15:38.525Z,88.49
2022-09-20T04:18:24.815Z,88.89
2022-09-20T04:21:03.373Z,88.58
2022-09-20T04:23:53.486Z,88.51
2022-09-20T04:26:28.731Z,89.13
2022-09-20T04:29:09.873Z,89.75
2022-09-20T04:31:57.227Z,89.73
2022-09-20T04:34:54.289Z,89.48
2022-09-20T04:37:38.531Z,89.74
2022-09-20T04:40:26.543Z,89.37
2022-09-20T04:43:19.083Z,89.47
2022-09-20T04:46:20.108Z,89.50
2022-09-20T04:48:54.795Z,90.44
2022-09-20T04:51:54.455Z,90.22
2022-09-20T04:54:53.545Z,89.63
2022-09-20T04:57:54.031Z,90.00
2022-09-20T05:00:25.141Z,89.65
2022-09-20T05:03:16.890Z,89.23
2022-09-20T05:06:15.801Z,89.90
2022-09-20T05:09:00.644Z,90.10
2022-09-20T05:11:49.943Z,89.99
2022-09-20T05:14:44.097Z,89.49
2022-09-20T05:17:25.658Z,89.59
2022-09-20T05:20:07.636Z,89.33
2022-09-20T05:23:09.391Z,89.06
2022-09-20T05:26:11.841Z,89.15
2022-09-20T05:29:01.259Z,89.23
2022-09-20T05:31:53.126Z,88.67
2022-09-20T05:34:52.474Z,89.42
2022-09-20T05:38:01.280Z,89.54
2022-09-20T05:41:37.172Z,88.41
2022-09-20T05:44:37.319Z,88.58
2022-09-20T05:47:35.075Z,88.58
2022-09-20T05:50:34.667Z,87.74
2022-09-20T05:53:40.121Z,88.52
2022-09-20T05:56:49.978Z,87.19
2022-09-20T05:59:42.856Z,86.03
2022-09-20T06:02:41.449Z,86.05
2022-09-20T06:05:47.313Z,85.71
2022-09-20T06:09:00.441Z,85.31
2022-09-20T06:12:24.851Z,85.05
2022-09-20T06:15:29.180Z,84.21
2022-09-20T06:18:31.880Z,84.58
2022-09-20T06:21:28.384Z,83.54
2022-09-20T06:24:00.513Z,83.32
2022-09-20T06:26:34.037Z,83.66
2022-09-20T06:29:11.785Z,83.18
2022-09-20T06:31:40.156Z,82.68
2022-09-20T06:34:14.776Z,82.75
2022-09-20T06:37:13.167Z,81.91
2022-09-20T06:40:15.877Z,81.75
2022-09-20T06:42:44.791Z,81.09
2022-09-20T06:45:13.269Z,80.71
2022-09-20T06:47:42.094Z,80.37
2022-09-20T06:50:17.539Z,79.61
2022-09-20T06:52:46.763Z,77.72
2022-09-20T06:55:29.567Z,76.41
2022-09-20T06:57:58.584Z,76.34
2022-09-20T07:00:26.879Z,76.28
2022-09-20T07:02:56.888Z,75.93
2022-09-20T07:05:26.744Z,75.95
2022-09-20T07:07:59.369Z,75.30
2022-09-20T07:10:28.847Z,76.17
2022-09-20T07:13:02.726Z,75.27
2022-09-20T07:15:35.175Z,74.12
2022-09-20T07:18:03.636Z,74.14
2022-09-20T07:20:32.045Z,74.50
2022-09-20T07:23:00.454Z,74.53
2022-09-20T07:25:28.874Z,74.50
2022-09-20T07:27:57.756Z,74.36
2022-09-20T07:30:26.320Z,74.55
2022-09-20T07:32:55.057Z,74.37
2022-09-20T07:35:24.243Z,74.45
2022-09-20T07:37:58.930Z,74.14
2022-09-20T07:40:27.496Z,73.52
2022-09-20T07:42:58.109Z,72.48
2022-09-20T07:45:26.412Z,71.99
2022-09-20T07:47:54.705Z,72.12
2022-09-20T07:50:22.932Z,72.29
2022-09-20T07:52:51.489Z,71.04
2022-09-20T07:55:19.819Z,71.71
2022-09-20T07:57:48.178Z,71.58
2022-09-20T08:00:16.609Z,71.51
2022-09-20T08:02:45.588Z,71.27
2022-09-20T08:05:13.895Z,70.16
2022-09-20T08:07:42.214Z,70.31
2022-09-20T08:10:10.586Z,70.60
2022-09-20T08:15:27.200Z,68.25
2022-09-20T08:17:55.456Z,67.98
2022-09-20T08:20:23.727Z,68.71
2022-09-20T08:23:19.416Z,68.94
2022-09-20T08:25:42.867Z,68.67
2022-09-20T08:28:11.181Z,68.71
2022-09-20T08:30:39.476Z,69.04
2022-09-20T08:33:07.790Z,68.31
2022-09-20T08:35:38.238Z,67.50
2022-09-20T08:41:12.796Z,66.82
2022-09-20T08:44:17.850Z,67.01
2022-09-20T08:46:56.485Z,66.10
2022-09-20T08:49:29.913Z,65.96
2022-09-20T08:51:59.537Z,65.27
2022-09-20T08:54:32.771Z,64.44
2022-09-20T08:57:13.028Z,64.89
2022-09-20T08:59:41.844Z,64.41
2022-09-20T09:02:20.295Z,65.25
2022-09-20T09:04:51.673Z,64.13
2022-09-20T09:07:23.765Z,63.60
2022-09-20T09:09:54.214Z,63.16
2022-09-20T09:12:30.204Z,63.60
2022-09-20T09:15:19.709Z,63.19
2022-09-20T09:17:47.942Z,62.40
2022-09-20T09:20:22.648Z,61.34
2022-09-20T09:23:03.488Z,62.00
2022-09-20T09:25:39.842Z,59.00
2022-09-20T09:28:07.960Z,59.58
2022-09-20T09:30:39.866Z,58.20
2022-09-20T09:33:20.097Z,58.68
2022-09-20T09:35:59.347Z,58.67
2022-09-20T09:38:40.207Z,57.29
2022-09-20T09:41:35.419Z,57.49
2022-09-20T09:44:27.892Z,54.57
2022-09-20T09:46:58.102Z,54.32
2022-09-20T09:49:34.242Z,52.55
2022-09-20T09:52:25.798Z,52.71
2022-09-20T09:55:03.636Z,53.70
2022-09-20T09:57:59.245Z,54.37
2022-09-20T10:00:29.910Z,51.83
2022-09-20T10:03:19.733Z,51.92
2022-09-20T10:06:55.811Z,51.31
2022-09-20T10:09:45.437Z,52.41
2022-09-20T10:12:26.440Z,53.03
2022-09-20T10:15:32.668Z,52.15
2022-09-20T10:18:09.934Z,53.08
2022-09-20T10:20:57.721Z,54.23
2022-09-20T10:24:04.481Z,53.69
2022-09-20T10:26:45.315Z,53.40
2022-09-20T10:29:34.970Z,52.87
2022-09-20T10:32:56.104Z,51.72
2022-09-20T10:35:52.573Z,50.90
2022-09-20T10:38:36.022Z,51.49
2022-09-20T10:42:00.418Z,51.23
2022-09-20T10:44:46.747Z,51.93
2022-09-20T10:47:24.527Z,50.83
2022-09-20T10:50:20.421Z,49.37
2022-09-20T10:53:10.308Z,47.32
2022-09-20T10:56:13.448Z,46.90
2022-09-20T10:59:08.908Z,46.91
2022-09-20T11:01:55.339Z,47.64
2022-09-20T11:04:54.226Z,48.32
2022-09-20T11:07:56.407Z,47.93
2022-09-20T11:11:08.817Z,49.14
2022-09-20T11:13:53.226Z,47.76
2022-09-20T11:16:33.395Z,46.03
2022-09-20T11:19:23.653Z,46.79
2022-09-20T11:22:06.196Z,47.02
2022-09-20T11:24:47.988Z,47.75
2022-09-20T11:27:34.167Z,47.81
2022-09-20T11:30:22.118Z,45.62
2022-09-20T11:33:11.702Z,44.78
2022-09-20T11:35:53.337Z,44.70
2022-09-20T11:38:53.422Z,45.60
2022-09-20T11:41:30.561Z,46.26
2022-09-20T11:44:12.136Z,46.02
2022-09-20T11:47:36.562Z,46.10
2022-09-20T11:50:44.440Z,46.66
2022-09-20T11:53:55.676Z,46.55
2022-09-20T11:56:31.152Z,47.31
2022-09-20T11:59:03.554Z,47.16
2022-09-20T12:01:39.229Z,47.53
2022-09-20T12:04:38.999Z,47.56
2022-09-20T12:07:43.002Z,47.76
2022-09-20T12:10:25.364Z,46.61
2022-09-20T12:13:15.760Z,47.24
2022-09-20T12:15:44.910Z,48.09
2022-09-20T12:18:46.103Z,48.51
2022-09-20T12:21:18.482Z,48.63
2022-09-20T12:24:01.765Z,48.62
2022-09-20T12:26:42.749Z,49.21
2022-09-20T12:29:34.354Z,49.76
2022-09-20T12:32:24.090Z,50.14
2022-09-20T12:34:52.638Z,49.88
2022-09-20T12:37:26.457Z,49.09
2022-09-20T12:39:56.310Z,47.44
2022-09-20T12:42:32.538Z,47.04
2022-09-20T12:45:08.116Z,45.81
2022-09-20T12:47:38.440Z,45.30
2022-09-20T12:50:34.901Z,44.12
2022-09-20T12:53:12.282Z,45.08
2022-09-20T12:55:56.388Z,45.48
2022-09-20T12:58:47.158Z,46.19
2022-09-20T13:01:15.466Z,44.18
2022-09-20T13:03:50.940Z,43.44
2022-09-20T13:06:19.345Z,40.68
2022-09-20T13:09:04.455Z,40.63
2022-09-20T13:11:54.320Z,40.74
2022-09-20T13:14:30.000Z,41.62
2022-09-20T13:17:13.814Z,41.06
2022-09-20T13:19:50.889Z,42.12
2022-09-20T13:22:38.021Z,43.11
2022-09-20T13:25:08.232Z,43.71
2022-09-20T13:27:49.808Z,44.54
2022-09-20T13:30:32.876Z,44.22
2022-09-20T13:33:25.119Z,42.88
2022-09-20T13:35:57.662Z,42.11
2022-09-20T13:38:32.005Z,41.42
2022-09-20T13:41:11.048Z,40.84
2022-09-20T13:43:50.887Z,38.74
2022-09-20T13:46:24.733Z,38.61
2022-09-20T13:49:23.890Z,39.75
2022-09-20T13:51:52.378Z,39.75
2022-09-20T13:54:31.515Z,39.10
2022-09-20T13:57:04.372Z,39.74
2022-09-20T13:59:45.623Z,38.25
2022-09-20T14:02:34.501Z,38.42
2022-09-20T14:05:07.435Z,37.97
2022-09-20T14:07:36.992Z,38.21
2022-09-20T14:10:33.168Z,38.34
2022-09-20T14:13:06.985Z,39.19
2022-09-20T14:15:44.430Z,40.72
2022-09-20T14:18:18.390Z,40.97
2022-09-20T14:20:47.898Z,41.44
2022-09-20T14:23:24.134Z,42.19
2022-09-20T14:26:36.446Z,42.81
2022-09-20T14:29:47.735Z,43.28
2022-09-20T14:32:19.101Z,43.75
2022-09-20T14:35:16.293Z,44.00
2022-09-20T14:38:02.853Z,43.44
2022-09-20T14:40:47.133Z,43.68
2022-09-20T14:43:35.178Z,43.69
2022-09-20T14:46:09.629Z,43.65
2022-09-20T14:48:43.283Z,44.21
2022-09-20T14:51:18.936Z,44.86
2022-09-20T14:54:11.106Z,45.31
2022-09-20T14:56:49.414Z,45.69
2022-09-20T14:59:17.709Z,46.27
2022-09-20T15:02:03.887Z,47.14
2022-09-20T15:04:35.504Z,47.40
2022-09-20T15:07:10.963Z,47.53
2022-09-20T15:09:39.422Z,47.48
2022-09-20T15:12:07.984Z,47.73
2022-09-20T15:14:38.009Z,47.36
2022-09-20T15:17:09.543Z,47.92
2022-09-20T15:19:40.627Z,48.08
2022-09-20T15:22:11.859Z,48.45
2022-09-20T15:24:42.040Z,49.08
2022-09-20T15:27:14.845Z,48.85
2022-09-20T15:29:43.253Z,48.58
2022-09-20T15:32:11.905Z,49.02
2022-09-20T15:34:40.335Z,49.06
2022-09-20T15:37:08.954Z,48.64
2022-09-20T15:39:37.598Z,49.22
2022-09-20T15:42:07.046Z,49.17
2022-09-20T15:44:35.493Z,49.43
2022-09-20T15:47:04.756Z,49.58
2022-09-20T15:49:33.801Z,49.74
2022-09-20T15:52:02.628Z,50.28
2022-09-20T15:54:31.276Z,50.89
2022-09-20T15:57:00.385Z,52.08
2022-09-20T15:59:29.709Z,52.13
2022-09-20T16:01:59.762Z,52.11
2022-09-20T16:04:28.139Z,52.90
2022-09-20T16:06:56.776Z,53.11
2022-09-20T16:09:26.489Z,53.27
2022-09-20T16:11:58.970Z,53.13
2022-09-20T16:14:28.012Z,53.42
2022-09-20T16:16:58.691Z,54.28
2022-09-20T16:19:27.339Z,54.59
2022-09-20T16:21:58.977Z,54.75
2022-09-20T16:24:34.787Z,55.63
2022-09-20T16:27:06.353Z,56.19
2022-09-20T16:29:36.147Z,56.99
2022-09-20T16:32:05.545Z,57.66
2022-09-20T16:34:36.567Z,58.25
2022-09-20T16:37:17.077Z,59.09
2022-09-20T16:39:45.682Z,58.80
2022-09-20T16:42:14.025Z,58.52
2022-09-20T16:44:43.296Z,58.61
2022-09-20T16:47:23.265Z,58.92
2022-09-20T16:49:53.338Z,59.35
2022-09-20T16:52:21.753Z,59.73
2022-09-20T16:54:50.477Z,60.01
2022-09-20T16:57:18.991Z,60.84
2022-09-20T16:59:48.220Z,62.50
2022-09-20T17:02:16.680Z,62.68
2022-09-20T17:04:45.277Z,63.40
2022-09-20T17:07:16.530Z,63.81
2022-09-20T17:09:44.947Z,65.09
2022-09-20T17:12:15.084Z,64.95
2022-09-20T17:14:44.268Z,64.10
2022-09-20T17:17:13.327Z,63.98
2022-09-20T17:19:41.694Z,63.89
2022-09-20T17:22:10.134Z,63.54
2022-09-20T17:24:39.820Z,62.17
2022-09-20T17:27:08.968Z,62.27
2022-09-20T17:29:37.314Z,62.35
2022-09-20T17:32:05.923Z,62.28
2022-09-20T17:34:34.458Z,63.45
2022-09-20T17:39:48.290Z,63.20
2022-09-20T17:42:17.549Z,62.32
2022-09-20T17:44:45.940Z,62.46
2022-09-20T17:47:14.537Z,62.10
2022-09-20T17:49:43.445Z,62.25
2022-09-20T17:52:11.831Z,62.16
2022-09-20T17:54:40.320Z,61.90
2022-09-20T17:57:09.429Z,61.81
2022-09-20T17:59:37.877Z,62.38
2022-09-20T18:02:06.329Z,63.52
2022-09-20T18:04:35.068Z,63.86
2022-09-20T18:07:04.590Z,63.58
2022-09-20T18:09:33.052Z,63.78
2022-09-20T18:12:02.273Z,63.98
2022-09-20T18:14:32.776Z,64.46
2022-09-20T18:17:03.825Z,64.92
2022-09-20T18:19:35.828Z,65.43
2022-09-20T18:22:04.432Z,65.54
2022-09-20T18:24:32.843Z,65.95
2022-09-20T18:27:01.337Z,65.57
2022-09-20T18:29:33.553Z,66.12
2022-09-20T18:32:02.513Z,64.50
2022-09-20T18:34:33.585Z,66.29
2022-09-20T18:37:03.991Z,66.87
2022-09-20T18:39:34.994Z,67.15
2022-09-20T18:42:04.417Z,66.91
2022-09-20T18:44:34.452Z,67.12
2022-09-20T18:47:05.414Z,67.37
2022-09-20T18:49:34.585Z,67.12
2022-09-20T18:52:03.910Z,67.32
2022-09-20T18:54:33.494Z,67.78
2022-09-20T18:57:02.754Z,68.47
2022-09-20T18:59:31.347Z,69.92
2022-09-20T19:02:45.313Z,71.51
2022-09-20T19:05:28.768Z,70.86
2022-09-20T19:08:34.453Z,70.50
2022-09-20T19:11:12.747Z,69.86
2022-09-20T19:13:53.382Z,69.08
2022-09-20T19:16:30.804Z,69.63
2022-09-20T19:19:46.886Z,68.67
2022-09-20T19:22:48.955Z,68.78
2022-09-20T19:25:43.555Z,69.84
2022-09-20T19:28:14.693Z,70.75
2022-09-20T19:30:43.417Z,70.23
2022-09-20T19:33:18.300Z,70.65
2022-09-20T19:35:51.538Z,70.60
2022-09-20T19:38:22.927Z,70.88
2022-09-20T19:41:53.003Z,70.50
2022-09-20T19:44:43.698Z,69.97
2022-09-20T19:47:42.466Z,70.86
2022-09-20T19:50:27.993Z,69.93
2022-09-20T19:52:56.914Z,70.09
2022-09-20T19:55:26.049Z,69.65
2022-09-20T19:57:54.780Z,69.89
2022-09-20T20:00:23.910Z,70.19
2022-09-20T20:02:53.127Z,70.00
2022-09-20T20:05:27.679Z,70.70
2022-09-20T20:08:14.022Z,70.66
2022-09-20T20:11:09.526Z,71.41
2022-09-20T20:14:07.278Z,70.83
2022-09-20T20:17:06.374Z,70.78
2022-09-20T20:20:33.926Z,70.53
2022-09-20T20:23:42.788Z,70.74
2022-09-20T20:26:25.691Z,71.60
2022-09-20T20:28:54.626Z,70.83
2022-09-20T20:31:23.221Z,71.26
2022-09-20T20:33:51.892Z,71.21
2022-09-20T20:36:20.443Z,71.49
2022-09-20T20:38:53.345Z,72.53
2022-09-20T20:41:23.804Z,72.47
2022-09-20T20:43:56.421Z,72.07
2022-09-20T20:46:25.924Z,72.82
2022-09-20T20:48:54.340Z,73.59
2022-09-20T20:51:23.070Z,73.94
2022-09-20T20:53:54.033Z,73.68
2022-09-20T20:56:29.918Z,73.47
2022-09-20T20:59:00.641Z,73.94
2022-09-20T21:01:44.814Z,73.97
2022-09-20T21:04:13.799Z,74.73
2022-09-20T21:06:42.579Z,74.41
2022-09-20T21:09:11.730Z,74.82
2022-09-20T21:11:44.563Z,74.42
2022-09-20T21:14:13.160Z,75.19
2022-09-20T21:16:43.555Z,75.65
2022-09-20T21:19:15.653Z,76.00
2022-09-20T21:21:46.513Z,75.70
2022-09-20T21:24:17.523Z,76.42
2022-09-20T21:26:46.674Z,75.57
2022-09-20T21:29:16.729Z,75.65
2022-09-20T21:31:47.982Z,75.91
2022-09-20T21:34:16.892Z,75.87
2022-09-20T21:36:45.304Z,75.98
2022-09-20T21:39:14.020Z,76.17
2022-09-20T21:41:42.437Z,76.21
2022-09-20T21:44:11.183Z,76.54
2022-09-20T21:46:41.778Z,76.58
2022-09-20T21:49:12.391Z,76.52
2022-09-20T21:51:42.757Z,76.15
2022-09-20T21:54:11.624Z,76.08
2022-09-20T21:56:41.368Z,77.08
2022-09-20T21:59:09.969Z,76.93
2022-09-20T22:01:41.423Z,76.59
2022-09-20T22:04:12.622Z,76.84
2022-09-20T22:06:45.391Z,75.93
2022-09-20T22:09:18.158Z,76.24
2022-09-20T22:11:49.055Z,76.85
2022-09-20T22:14:19.821Z,77.29
2022-09-20T22:16:51.356Z,77.67
2022-09-20T22:19:21.599Z,76.91
2022-09-20T22:21:51.487Z,77.07
2022-09-20T22:24:19.868Z,78.16
2022-09-20T22:26:51.009Z,78.11
2022-09-20T22:29:19.785Z,78.28
2022-09-20T22:31:50.317Z,77.77
2022-09-20T22:34:24.527Z,78.29
2022-09-20T22:36:53.931Z,77.41
2022-09-20T22:39:22.334Z,78.13
2022-09-20T22:41:51.532Z,79.15
2022-09-20T22:44:19.854Z,77.86
2022-09-20T22:46:48.140Z,78.25
2022-09-20T22:49:16.767Z,78.21
2022-09-20T22:51:45.103Z,78.46
2022-09-20T22:54:13.452Z,78.50
2022-09-20T22:56:42.570Z,79.32
2022-09-20T22:59:14.890Z,78.91
2022-09-20T23:01:48.224Z,79.28
2022-09-20T23:04:19.949Z,79.08
2022-09-20T23:06:57.000Z,78.98
2022-09-20T23:09:29.990Z,79.04
2022-09-20T23:11:58.617Z,79.12
2022-09-20T23:14:27.116Z,79.60
2022-09-20T23:16:55.465Z,79.45
2022-09-20T23:19:24.015Z,79.63
2022-09-20T23:21:52.371Z,79.92
2022-09-20T23:24:20.713Z,80.58
2022-09-20T23:26:49.099Z,80.94
2022-09-20T23:29:17.813Z,80.76
2022-09-20T23:31:47.938Z,81.43
2022-09-20T23:34:17.965Z,81.28
2022-09-20T23:36:47.154Z,80.58
2022-09-20T23:39:15.973Z,81.18
2022-09-20T23:41:49.883Z,80.38
2022-09-20T23:44:20.019Z,81.64
2022-09-20T23:46:48.406Z,81.11
2022-09-20T23:49:16.752Z,81.61
2022-09-20T23:51:45.101Z,83.08
2022-09-20T23:54:13.458Z,82.04
2022-09-20T23:56:42.986Z,82.11
2022-09-20T23:59:11.342Z,82.23
